createdAt,value
2022-08-03T00:00:15.336Z,18.28
2022-08-03T00:01:15.307Z,18.28
2022-08-03T00:02:15.591Z,18.22
2022-08-03T00:03:15.392Z,18.18
2022-08-03T00:04:15.329Z,18.16
2022-08-03T00:05:15.198Z,18.25
2022-08-03T00:06:15.169Z,18.19
2022-08-03T00:07:15.144Z,18.19
2022-08-03T00:08:15.118Z,18.16
2022-08-03T00:09:15.200Z,18.23
2022-08-03T00:10:15.058Z,18.05
2022-08-03T00:11:15.028Z,18.16
2022-08-03T00:12:15.125Z,18.07
2022-08-03T00:13:14.967Z,18.07
2022-08-03T00:14:14.973Z,18.11
2022-08-03T00:15:16.614Z,18.05
2022-08-03T00:16:14.882Z,18.08
2022-08-03T00:17:14.854Z,17.98
2022-08-03T00:18:14.824Z,18.00
2022-08-03T00:19:14.925Z,17.90
2022-08-03T00:20:14.851Z,17.94
2022-08-03T00:21:14.743Z,18.00
2022-08-03T00:22:14.992Z,17.90
2022-08-03T00:23:14.689Z,18.00
2022-08-03T00:24:14.656Z,17.98
2022-08-03T00:25:14.639Z,17.98
2022-08-03T00:26:14.661Z,17.98
2022-08-03T00:27:16.563Z,17.90
2022-08-03T00:28:14.721Z,17.97
2022-08-03T00:29:14.817Z,17.92
2022-08-03T00:30:14.753Z,17.94
2022-08-03T00:31:14.583Z,17.98
2022-08-03T00:32:14.697Z,17.90
2022-08-03T00:33:14.407Z,17.92
2022-08-03T00:34:14.378Z,18.00
2022-08-03T00:35:29.357Z,18.00
2022-08-03T00:36:14.316Z,17.89
2022-08-03T00:37:14.351Z,17.89
2022-08-03T00:38:14.270Z,17.97
2022-08-03T00:39:14.235Z,17.95
2022-08-03T00:40:14.207Z,18.01
2022-08-03T00:41:15.686Z,18.01
2022-08-03T00:42:14.498Z,18.08
2022-08-03T00:43:14.282Z,18.03
2022-08-03T00:44:14.089Z,18.07
2022-08-03T00:45:14.077Z,18.07
2022-08-03T00:46:19.056Z,18.04
2022-08-03T00:47:14.009Z,18.03
2022-08-03T00:48:29.378Z,18.03
2022-08-03T00:49:14.028Z,18.13
2022-08-03T00:50:13.922Z,18.05
2022-08-03T00:51:13.905Z,18.13
2022-08-03T00:52:13.871Z,18.08
2022-08-03T00:53:13.838Z,18.08
2022-08-03T00:54:13.875Z,18.13
2022-08-03T00:55:13.783Z,18.04
2022-08-03T00:56:13.750Z,18.05
2022-08-03T00:57:13.730Z,18.13
2022-08-03T00:58:13.694Z,18.08
2022-08-03T00:59:13.667Z,18.08
2022-08-03T01:00:13.784Z,18.11
2022-08-03T01:01:13.673Z,18.08
2022-08-03T01:02:13.745Z,18.08
2022-08-03T01:03:13.553Z,18.07
2022-08-03T01:04:13.531Z,18.08
2022-08-03T01:05:13.495Z,18.07
2022-08-03T01:06:13.517Z,18.07
2022-08-03T01:07:13.439Z,18.13
2022-08-03T01:08:13.415Z,18.11
2022-08-03T01:09:13.400Z,18.15
2022-08-03T01:10:13.353Z,18.13
2022-08-03T01:11:13.380Z,18.13
2022-08-03T01:12:13.473Z,18.13
2022-08-03T01:13:13.930Z,18.11
2022-08-03T01:14:18.577Z,18.11
2022-08-03T01:15:13.216Z,18.07
2022-08-03T01:16:13.243Z,18.11
2022-08-03T01:17:13.207Z,18.01
2022-08-03T01:18:13.123Z,18.08
2022-08-03T01:19:13.101Z,18.11
2022-08-03T01:20:13.082Z,18.15
2022-08-03T01:21:13.120Z,18.18
2022-08-03T01:22:13.209Z,18.16
2022-08-03T01:23:12.997Z,18.16
2022-08-03T01:24:12.957Z,18.19
2022-08-03T01:25:12.978Z,18.15
2022-08-03T01:26:12.897Z,18.23
2022-08-03T01:27:12.877Z,18.34
2022-08-03T01:28:12.912Z,18.28
2022-08-03T01:29:12.819Z,18.28
2022-08-03T01:30:12.793Z,18.34
2022-08-03T01:31:12.759Z,18.35
2022-08-03T01:32:58.964Z,18.29
2022-08-03T01:33:12.774Z,18.33
2022-08-03T01:34:14.578Z,18.34
2022-08-03T01:35:12.672Z,18.33
2022-08-03T01:36:12.623Z,18.33
2022-08-03T01:37:12.593Z,18.38
2022-08-03T01:38:12.639Z,18.33
2022-08-03T01:39:12.540Z,18.28
2022-08-03T01:40:12.503Z,18.41
2022-08-03T01:41:12.489Z,18.38
2022-08-03T01:42:12.449Z,18.33
2022-08-03T01:43:12.475Z,18.33
2022-08-03T01:44:29.159Z,18.29
2022-08-03T01:45:12.378Z,18.44
2022-08-03T01:46:12.386Z,18.41
2022-08-03T01:47:12.313Z,18.33
2022-08-03T01:48:12.337Z,18.35
2022-08-03T01:49:12.281Z,18.31
2022-08-03T01:50:12.228Z,18.31
2022-08-03T01:51:12.204Z,18.33
2022-08-03T01:52:12.176Z,18.31
2022-08-03T01:53:12.195Z,18.19
2022-08-03T01:54:12.115Z,18.18
2022-08-03T01:55:12.091Z,18.22
2022-08-03T01:56:12.129Z,18.13
2022-08-03T01:57:12.027Z,18.15
2022-08-03T01:58:12.077Z,18.04
2022-08-03T01:59:11.978Z,18.10
2022-08-03T02:00:11.984Z,18.08
2022-08-03T02:01:12.041Z,18.08
2022-08-03T02:02:31.886Z,18.04
2022-08-03T02:03:11.917Z,18.03
2022-08-03T02:04:11.869Z,18.04
2022-08-03T02:05:11.812Z,17.98
2022-08-03T02:07:02.104Z,18.00
2022-08-03T02:07:11.748Z,17.95
2022-08-03T02:08:11.779Z,17.94
2022-08-03T02:09:11.748Z,17.86
2022-08-03T02:10:11.664Z,17.94
2022-08-03T02:11:11.640Z,17.90
2022-08-03T02:12:11.606Z,17.89
2022-08-03T02:13:11.582Z,17.79
2022-08-03T02:14:11.611Z,17.85
2022-08-03T02:15:11.517Z,17.78
2022-08-03T02:16:11.493Z,17.82
2022-08-03T02:17:11.466Z,17.76
2022-08-03T02:18:11.428Z,17.74
2022-08-03T02:19:11.472Z,17.78
2022-08-03T02:20:11.376Z,17.72
2022-08-03T02:21:11.402Z,17.68
2022-08-03T02:22:11.371Z,17.65
2022-08-03T02:23:11.300Z,17.64
2022-08-03T02:24:11.329Z,17.67
2022-08-03T02:25:11.234Z,17.64
2022-08-03T02:26:11.203Z,17.70
2022-08-03T02:27:11.186Z,17.54
2022-08-03T02:28:11.146Z,17.57
2022-08-03T02:29:11.124Z,17.57
2022-08-03T02:30:11.152Z,17.57
2022-08-03T02:31:11.061Z,17.68
2022-08-03T02:32:11.045Z,17.65
2022-08-03T02:33:11.005Z,17.72
2022-08-03T02:34:11.037Z,17.68
2022-08-03T02:35:10.999Z,17.72
2022-08-03T02:36:10.919Z,17.72
2022-08-03T02:37:10.892Z,17.82
2022-08-03T02:38:10.867Z,17.79
2022-08-03T02:39:10.833Z,17.85
2022-08-03T02:40:10.867Z,17.80
2022-08-03T02:41:10.778Z,17.79
2022-08-03T02:42:12.253Z,17.92
2022-08-03T02:43:10.719Z,17.85
2022-08-03T02:44:10.701Z,17.97
2022-08-03T02:45:10.737Z,17.86
2022-08-03T02:46:10.638Z,17.97
2022-08-03T02:47:10.605Z,17.92
2022-08-03T02:48:10.579Z,17.94
2022-08-03T02:49:40.653Z,18.04
2022-08-03T02:50:10.575Z,18.08
2022-08-03T02:51:10.602Z,18.16
2022-08-03T02:52:12.587Z,18.07
2022-08-03T02:53:10.981Z,18.20
2022-08-03T02:54:10.412Z,18.18
2022-08-03T02:55:10.464Z,18.16
2022-08-03T02:56:10.354Z,18.23
2022-08-03T02:57:10.325Z,18.28
2022-08-03T02:58:10.297Z,18.35
2022-08-03T02:59:10.263Z,18.33
2022-08-03T03:00:10.243Z,18.31
2022-08-03T03:01:10.299Z,18.34
2022-08-03T03:02:10.229Z,18.38
2022-08-03T03:03:10.153Z,18.40
2022-08-03T03:04:10.139Z,18.38
2022-08-03T03:05:55.590Z,18.45
2022-08-03T03:06:10.131Z,18.45
2022-08-03T03:07:10.065Z,18.50
2022-08-03T03:08:17.801Z,18.45
2022-08-03T03:09:09.988Z,18.55
2022-08-03T03:10:09.960Z,18.58
2022-08-03T03:11:09.928Z,18.58
2022-08-03T03:12:09.990Z,18.56
2022-08-03T03:13:09.871Z,18.60
2022-08-03T03:14:09.845Z,18.66
2022-08-03T03:15:09.827Z,18.63
2022-08-03T03:16:09.791Z,18.59
2022-08-03T03:17:09.813Z,18.62
2022-08-03T03:18:09.741Z,18.65
2022-08-03T03:19:09.704Z,18.66
2022-08-03T03:20:09.675Z,18.65
2022-08-03T03:21:09.647Z,18.65
2022-08-03T03:22:09.702Z,18.71
2022-08-03T03:23:09.591Z,18.68
2022-08-03T03:24:09.608Z,18.62
2022-08-03T03:25:09.531Z,18.58
2022-08-03T03:26:09.507Z,18.56
2022-08-03T03:27:09.553Z,18.59
2022-08-03T03:28:09.458Z,18.59
2022-08-03T03:29:09.424Z,18.58
2022-08-03T03:30:09.404Z,18.62
2022-08-03T03:31:09.367Z,18.59
2022-08-03T03:32:09.397Z,18.45
2022-08-03T03:33:09.391Z,18.49
2022-08-03T03:34:09.287Z,18.49
2022-08-03T03:35:09.257Z,18.47
2022-08-03T03:36:09.230Z,18.49
2022-08-03T03:37:09.198Z,18.47
2022-08-03T03:38:09.291Z,18.44
2022-08-03T03:39:15.608Z,18.41
2022-08-03T03:40:09.113Z,18.41
2022-08-03T03:41:09.089Z,18.44
2022-08-03T03:42:09.161Z,18.40
2022-08-03T03:43:09.121Z,18.45
2022-08-03T03:44:09.053Z,18.43
2022-08-03T03:45:08.992Z,18.40
2022-08-03T03:46:08.948Z,18.43
2022-08-03T03:47:08.920Z,18.43
2022-08-03T03:48:08.895Z,18.41
2022-08-03T03:49:08.988Z,18.37
2022-08-03T03:50:08.840Z,18.40
2022-08-03T03:51:08.802Z,18.37
2022-08-03T03:52:08.871Z,18.31
2022-08-03T03:53:09.277Z,18.37
2022-08-03T03:54:08.807Z,18.31
2022-08-03T03:55:08.693Z,18.33
2022-08-03T03:56:08.669Z,18.34
2022-08-03T03:57:08.636Z,18.37
2022-08-03T03:58:08.610Z,18.33
2022-08-03T03:59:08.583Z,18.34
2022-08-03T04:00:08.621Z,18.29
2022-08-03T04:01:08.592Z,18.41
2022-08-03T04:02:08.502Z,18.37
2022-08-03T04:03:08.466Z,18.38
2022-08-03T04:04:08.439Z,18.38
2022-08-03T04:05:08.492Z,18.44
2022-08-03T04:06:08.437Z,18.43
2022-08-03T04:07:08.352Z,18.44
2022-08-03T04:08:08.328Z,18.49
2022-08-03T04:09:08.300Z,18.49
2022-08-03T04:10:14.257Z,18.44
2022-08-03T04:11:08.244Z,18.52
2022-08-03T04:12:08.214Z,18.50
2022-08-03T04:13:08.189Z,18.62
2022-08-03T04:14:08.160Z,18.63
2022-08-03T04:15:08.207Z,18.66
2022-08-03T04:16:08.103Z,18.80
2022-08-03T04:17:08.078Z,18.77
2022-08-03T04:18:08.043Z,18.86
2022-08-03T04:19:08.023Z,18.88
2022-08-03T04:20:07.994Z,18.98
2022-08-03T04:21:08.054Z,18.86
2022-08-03T04:22:07.937Z,18.92
2022-08-03T04:23:13.621Z,19.15
2022-08-03T04:24:07.880Z,19.52
2022-08-03T04:25:07.866Z,19.85
2022-08-03T04:26:07.882Z,20.19
2022-08-03T04:27:07.796Z,20.26
2022-08-03T04:28:30.871Z,20.16
2022-08-03T04:29:07.742Z,20.11
2022-08-03T04:30:07.724Z,19.99
2022-08-03T04:31:07.746Z,20.04
2022-08-03T04:32:07.664Z,20.00
2022-08-03T04:33:07.627Z,19.96
2022-08-03T04:34:07.618Z,19.81
2022-08-03T04:35:07.571Z,19.92
2022-08-03T04:36:08.111Z,20.04
2022-08-03T04:37:07.521Z,20.13
2022-08-03T04:38:07.492Z,20.28
2022-08-03T04:39:07.508Z,20.32
2022-08-03T04:40:07.439Z,20.32
2022-08-03T04:41:07.476Z,20.31
2022-08-03T04:42:09.037Z,20.36
2022-08-03T04:43:07.354Z,20.29
2022-08-03T04:44:07.333Z,20.19
2022-08-03T04:45:07.324Z,20.14
2022-08-03T04:46:07.535Z,20.14
2022-08-03T04:47:07.248Z,20.00
2022-08-03T04:48:07.229Z,19.88
2022-08-03T04:49:07.249Z,19.89
2022-08-03T04:50:11.926Z,19.76
2022-08-03T04:51:07.151Z,19.76
2022-08-03T04:52:07.197Z,19.73
2022-08-03T04:53:07.258Z,19.77
2022-08-03T04:54:07.059Z,19.70
2022-08-03T04:55:07.038Z,19.79
2022-08-03T04:56:07.003Z,19.81
2022-08-03T04:57:06.977Z,19.74
2022-08-03T04:58:07.009Z,19.77
2022-08-03T04:59:06.923Z,19.66
2022-08-03T05:00:06.894Z,19.66
2022-08-03T05:01:06.875Z,19.69
2022-08-03T05:02:06.920Z,19.66
2022-08-03T05:03:20.285Z,19.67
2022-08-03T05:04:06.865Z,19.64
2022-08-03T05:05:06.762Z,19.76
2022-08-03T05:06:11.156Z,19.79
2022-08-03T05:07:12.489Z,19.71
2022-08-03T05:08:06.704Z,19.84
2022-08-03T05:09:06.716Z,19.85
2022-08-03T05:10:11.715Z,19.92
2022-08-03T05:11:06.600Z,20.04
2022-08-03T05:12:06.576Z,20.29
2022-08-03T05:13:06.557Z,20.60
2022-08-03T05:14:06.646Z,21.00
2022-08-03T05:15:06.486Z,21.02
2022-08-03T05:16:06.474Z,21.06
2022-08-03T05:17:06.445Z,20.85
2022-08-03T05:18:09.542Z,20.84
2022-08-03T05:19:06.384Z,20.77
2022-08-03T05:20:06.447Z,20.80
2022-08-03T05:21:06.330Z,20.82
2022-08-03T05:22:06.303Z,20.82
2022-08-03T05:23:06.274Z,20.93
2022-08-03T05:24:06.251Z,20.96
2022-08-03T05:25:06.305Z,21.03
2022-08-03T05:26:06.247Z,21.17
2022-08-03T05:27:06.168Z,21.45
2022-08-03T05:28:06.147Z,21.69
2022-08-03T05:29:06.118Z,21.99
2022-08-03T05:30:30.410Z,22.13
2022-08-03T05:31:06.068Z,22.22
2022-08-03T05:32:08.309Z,22.15
2022-08-03T05:33:06.016Z,22.00
2022-08-03T05:34:05.997Z,21.92
2022-08-03T05:36:01.934Z,21.91
2022-08-03T05:36:06.016Z,21.80
2022-08-03T05:37:05.919Z,21.73
2022-08-03T05:38:13.660Z,21.75
2022-08-03T05:39:05.855Z,21.73
2022-08-03T05:40:05.837Z,21.76
2022-08-03T05:41:21.060Z,21.82
2022-08-03T05:42:05.844Z,21.77
2022-08-03T05:43:05.756Z,21.89
2022-08-03T05:44:05.731Z,21.80
2022-08-03T05:45:05.698Z,21.89
2022-08-03T05:46:12.903Z,21.80
2022-08-03T05:47:05.671Z,21.77
2022-08-03T05:48:05.694Z,21.88
2022-08-03T05:49:05.636Z,21.92
2022-08-03T05:50:05.573Z,21.96
2022-08-03T05:51:05.550Z,21.91
2022-08-03T05:52:11.702Z,22.04
2022-08-03T05:53:05.496Z,22.10
2022-08-03T05:54:05.675Z,22.06
2022-08-03T05:55:06.170Z,22.17
2022-08-03T05:56:13.942Z,22.14
2022-08-03T05:57:05.396Z,22.22
2022-08-03T05:58:05.610Z,22.20
2022-08-03T05:59:22.692Z,22.25
2022-08-03T06:00:05.372Z,22.38
2022-08-03T06:01:06.084Z,22.35
2022-08-03T06:02:05.352Z,22.39
2022-08-03T06:03:06.218Z,22.41
2022-08-03T06:04:05.268Z,22.47
2022-08-03T06:05:05.196Z,22.55
2022-08-03T06:06:05.166Z,22.54
2022-08-03T06:07:05.139Z,22.62
2022-08-03T06:08:05.114Z,22.62
2022-08-03T06:09:05.146Z,22.72
2022-08-03T06:10:34.063Z,22.76
2022-08-03T06:11:05.038Z,22.70
2022-08-03T06:12:05.018Z,22.84
2022-08-03T06:13:04.981Z,22.90
2022-08-03T06:14:04.964Z,22.94
2022-08-03T06:15:05.039Z,22.96
2022-08-03T06:16:04.910Z,23.05
2022-08-03T06:17:04.887Z,23.10
2022-08-03T06:18:04.855Z,23.15
2022-08-03T06:19:04.835Z,23.17
2022-08-03T06:20:04.806Z,23.25
2022-08-03T06:21:14.846Z,23.28
2022-08-03T06:22:04.758Z,23.36
2022-08-03T06:23:04.730Z,23.47
2022-08-03T06:24:04.709Z,23.48
2022-08-03T06:25:07.392Z,23.50
2022-08-03T06:26:04.653Z,23.47
2022-08-03T06:27:04.683Z,23.65
2022-08-03T06:28:04.607Z,23.59
2022-08-03T06:29:04.590Z,23.69
2022-08-03T06:30:04.552Z,23.68
2022-08-03T06:31:04.534Z,23.77
2022-08-03T06:32:04.561Z,23.74
2022-08-03T06:33:05.068Z,23.84
2022-08-03T06:34:33.748Z,23.86
2022-08-03T06:35:04.432Z,23.93
2022-08-03T06:36:04.406Z,24.10
2022-08-03T06:37:04.438Z,24.05
2022-08-03T06:38:04.391Z,24.10
2022-08-03T06:39:04.330Z,24.13
2022-08-03T06:40:04.306Z,24.28
2022-08-03T06:41:04.281Z,24.33
2022-08-03T06:42:04.441Z,24.39
2022-08-03T06:43:04.242Z,24.57
2022-08-03T06:44:04.638Z,24.54
2022-08-03T06:45:04.184Z,24.48
2022-08-03T06:46:04.158Z,24.55
2022-08-03T06:47:04.131Z,24.54
2022-08-03T06:48:04.781Z,24.60
2022-08-03T06:49:04.125Z,24.73
2022-08-03T06:50:13.011Z,24.68
2022-08-03T06:51:04.050Z,24.77
2022-08-03T06:52:06.914Z,24.76
2022-08-03T06:53:04.265Z,24.85
2022-08-03T06:54:03.963Z,24.95
2022-08-03T06:55:03.978Z,24.93
2022-08-03T06:56:03.922Z,24.95
2022-08-03T06:57:03.923Z,24.95
2022-08-03T06:58:03.872Z,24.99
2022-08-03T06:59:06.087Z,25.08
2022-08-03T07:00:08.125Z,25.14
2022-08-03T07:01:04.642Z,25.18
2022-08-03T07:02:03.772Z,25.28
2022-08-03T07:03:03.753Z,25.28
2022-08-03T07:04:03.738Z,25.31
2022-08-03T07:05:03.762Z,25.32
2022-08-03T07:06:03.671Z,25.32
2022-08-03T07:07:03.654Z,25.46
2022-08-03T07:08:03.618Z,25.43
2022-08-03T07:09:03.597Z,25.59
2022-08-03T07:10:03.622Z,25.65
2022-08-03T07:11:03.551Z,25.66
2022-08-03T07:12:03.524Z,25.70
2022-08-03T07:13:03.504Z,25.78
2022-08-03T07:14:06.584Z,25.80
2022-08-03T07:15:03.673Z,25.80
2022-08-03T07:16:03.424Z,25.85
2022-08-03T07:17:04.583Z,25.88
2022-08-03T07:18:03.381Z,25.85
2022-08-03T07:19:03.360Z,25.98
2022-08-03T07:20:03.394Z,25.99
2022-08-03T07:21:03.422Z,26.06
2022-08-03T07:22:04.304Z,25.96
2022-08-03T07:23:03.275Z,25.99
2022-08-03T07:24:03.237Z,26.02
2022-08-03T07:25:03.216Z,26.15
2022-08-03T07:26:03.198Z,26.21
2022-08-03T07:27:03.326Z,26.10
2022-08-03T07:28:03.147Z,26.13
2022-08-03T07:29:03.137Z,26.19
2022-08-03T07:30:03.236Z,26.25
2022-08-03T07:31:03.073Z,26.21
2022-08-03T07:32:03.050Z,26.22
2022-08-03T07:33:03.072Z,26.22
2022-08-03T07:34:03.001Z,26.29
2022-08-03T07:35:02.980Z,26.31
2022-08-03T07:36:02.959Z,26.34
2022-08-03T07:37:02.969Z,26.34
2022-08-03T07:38:02.991Z,26.31
2022-08-03T07:39:14.653Z,26.38
2022-08-03T07:40:02.866Z,26.48
2022-08-03T07:41:02.841Z,26.53
2022-08-03T07:42:02.812Z,26.48
2022-08-03T07:43:02.788Z,26.52
2022-08-03T07:44:02.853Z,26.47
2022-08-03T07:45:02.749Z,26.65
2022-08-03T07:46:02.723Z,26.58
2022-08-03T07:47:03.519Z,26.65
2022-08-03T07:48:02.678Z,26.68
2022-08-03T07:49:02.676Z,26.65
2022-08-03T07:50:02.698Z,26.74
2022-08-03T07:51:02.607Z,26.74
2022-08-03T07:52:02.581Z,26.71
2022-08-03T07:53:02.560Z,26.80
2022-08-03T07:54:02.585Z,26.83
2022-08-03T07:55:02.533Z,26.80
2022-08-03T07:56:02.541Z,26.97
2022-08-03T07:57:02.487Z,26.88
2022-08-03T07:58:02.442Z,26.95
2022-08-03T07:59:02.420Z,26.99
2022-08-03T08:00:02.810Z,27.05
2022-08-03T08:01:02.614Z,27.07
2022-08-03T08:02:02.351Z,27.15
2022-08-03T08:03:02.332Z,27.20
2022-08-03T08:04:02.309Z,27.25
2022-08-03T08:05:05.540Z,27.36
2022-08-03T08:06:02.389Z,27.36
2022-08-03T08:07:02.238Z,27.44
2022-08-03T08:08:02.213Z,27.40
2022-08-03T08:09:02.192Z,27.51
2022-08-03T08:10:02.170Z,27.65
2022-08-03T08:11:02.238Z,27.64
2022-08-03T08:12:02.118Z,27.70
2022-08-03T08:13:02.100Z,27.65
2022-08-03T08:14:02.078Z,27.58
2022-08-03T08:15:02.074Z,27.58
2022-08-03T08:16:02.039Z,27.65
2022-08-03T08:17:05.622Z,27.59
2022-08-03T08:18:01.996Z,27.73
2022-08-03T08:19:01.969Z,27.70
2022-08-03T08:20:01.946Z,27.70
2022-08-03T08:21:01.972Z,27.73
2022-08-03T08:22:03.061Z,27.74
2022-08-03T08:23:02.857Z,27.78
2022-08-03T08:24:02.335Z,27.80
2022-08-03T08:25:01.890Z,27.83
2022-08-03T08:26:01.810Z,27.89
2022-08-03T08:27:02.126Z,27.96
2022-08-03T08:28:29.014Z,27.87
2022-08-03T08:29:01.744Z,27.96
2022-08-03T08:30:10.433Z,28.02
2022-08-03T08:31:01.730Z,28.00
2022-08-03T08:32:01.689Z,28.11
2022-08-03T08:33:01.733Z,28.05
2022-08-03T08:34:03.977Z,28.19
2022-08-03T08:35:01.602Z,28.08
2022-08-03T08:36:01.577Z,28.04
2022-08-03T08:37:01.562Z,28.10
2022-08-03T08:38:05.653Z,28.10
2022-08-03T08:39:01.516Z,28.05
2022-08-03T08:40:01.498Z,28.01
2022-08-03T08:41:01.468Z,28.10
2022-08-03T08:42:01.442Z,28.14
2022-08-03T08:43:01.419Z,28.12
2022-08-03T08:44:01.467Z,28.07
2022-08-03T08:45:01.381Z,28.23
2022-08-03T08:46:01.357Z,28.23
2022-08-03T08:47:01.339Z,28.30
2022-08-03T08:48:05.434Z,28.32
2022-08-03T08:49:04.999Z,28.35
2022-08-03T08:50:10.075Z,28.32
2022-08-03T08:51:01.243Z,28.30
2022-08-03T08:52:01.629Z,28.38
2022-08-03T08:53:01.200Z,28.45
2022-08-03T08:54:01.188Z,28.51
2022-08-03T08:55:01.238Z,28.54
2022-08-03T08:56:01.491Z,28.69
2022-08-03T08:57:01.110Z,28.72
2022-08-03T08:58:01.092Z,28.75
2022-08-03T08:59:01.070Z,28.69
2022-08-03T09:00:01.056Z,28.78
2022-08-03T09:01:01.259Z,28.75
2022-08-03T09:02:00.999Z,28.75
2022-08-03T09:03:00.980Z,28.81
2022-08-03T09:04:00.955Z,28.91
2022-08-03T09:05:06.894Z,28.97
2022-08-03T09:06:00.925Z,28.94
2022-08-03T09:07:19.232Z,29.10
2022-08-03T09:08:01.055Z,29.04
2022-08-03T09:09:00.851Z,29.16
2022-08-03T09:10:11.194Z,29.22
2022-08-03T09:11:00.802Z,29.27
2022-08-03T09:12:14.562Z,29.31
2022-08-03T09:13:00.761Z,29.34
2022-08-03T09:14:00.818Z,29.35
2022-08-03T09:15:16.412Z,29.36
2022-08-03T09:16:01.532Z,29.49
2022-08-03T09:17:00.677Z,29.42
2022-08-03T09:18:00.776Z,29.49
2022-08-03T09:19:00.895Z,29.47
2022-08-03T09:20:03.490Z,29.49
2022-08-03T09:21:14.818Z,29.50
2022-08-03T09:22:00.570Z,29.44
2022-08-03T09:23:00.621Z,29.56
2022-08-03T09:24:03.811Z,29.53
2022-08-03T09:25:22.957Z,29.59
2022-08-03T09:26:00.535Z,29.59
2022-08-03T09:27:00.478Z,29.54
2022-08-03T09:28:00.431Z,29.60
2022-08-03T09:29:04.075Z,29.59
2022-08-03T09:30:00.460Z,29.59
2022-08-03T09:31:00.370Z,29.57
2022-08-03T09:32:00.391Z,29.56
2022-08-03T09:33:00.332Z,29.57
2022-08-03T09:34:00.364Z,29.66
2022-08-03T09:35:00.280Z,29.60
2022-08-03T09:36:00.323Z,29.61
2022-08-03T09:37:00.244Z,29.66
2022-08-03T09:38:12.003Z,29.59
2022-08-03T09:39:00.197Z,29.54
2022-08-03T09:40:00.187Z,29.47
2022-08-03T09:41:01.004Z,29.57
2022-08-03T09:42:00.134Z,29.59
2022-08-03T09:43:00.110Z,29.68
2022-08-03T09:44:00.096Z,29.68
2022-08-03T09:45:00.065Z,29.75
2022-08-03T09:46:00.052Z,29.84
2022-08-03T09:47:00.103Z,29.79
2022-08-03T09:48:00.007Z,29.81
2022-08-03T09:49:00.018Z,29.98
2022-08-03T09:50:00.094Z,29.90
2022-08-03T09:51:12.835Z,29.98
2022-08-03T09:52:32.566Z,29.91
2022-08-03T09:52:59.905Z,29.98
2022-08-03T09:54:00.450Z,29.94
2022-08-03T09:54:59.862Z,30.00
2022-08-03T09:56:33.817Z,30.05
2022-08-03T09:56:59.813Z,30.00
2022-08-03T09:57:59.795Z,30.03
2022-08-03T09:58:59.775Z,30.03
2022-08-03T10:00:04.455Z,30.05
2022-08-03T10:00:59.801Z,30.16
2022-08-03T10:01:59.788Z,30.10
2022-08-03T10:02:59.695Z,30.32
2022-08-03T10:04:03.943Z,30.28
2022-08-03T10:04:59.644Z,30.31
2022-08-03T10:06:00.306Z,30.48
2022-08-03T10:06:59.962Z,30.55
2022-08-03T10:07:59.593Z,30.51
2022-08-03T10:08:59.562Z,30.65
2022-08-03T10:10:30.347Z,30.62
2022-08-03T10:10:59.519Z,30.62
2022-08-03T10:11:59.509Z,30.65
2022-08-03T10:12:59.612Z,30.61
2022-08-03T10:14:01.214Z,30.59
2022-08-03T10:14:59.446Z,30.65
2022-08-03T10:16:23.957Z,30.69
2022-08-03T10:16:59.409Z,30.73
2022-08-03T10:17:59.375Z,30.68
2022-08-03T10:18:59.407Z,30.78
2022-08-03T10:19:59.335Z,30.75
2022-08-03T10:21:00.159Z,30.81
2022-08-03T10:21:59.309Z,30.77
2022-08-03T10:22:59.297Z,30.75
2022-08-03T10:23:59.331Z,30.85
2022-08-03T10:24:59.244Z,30.88
2022-08-03T10:25:59.280Z,30.90
2022-08-03T10:26:59.185Z,30.90
2022-08-03T10:27:59.168Z,30.88
2022-08-03T10:28:59.153Z,31.05
2022-08-03T10:29:59.181Z,31.10
2022-08-03T10:30:59.103Z,31.02
2022-08-03T10:31:59.094Z,31.17
2022-08-03T10:32:59.065Z,31.15
2022-08-03T10:33:59.103Z,31.14
2022-08-03T10:35:00.010Z,31.14
2022-08-03T10:35:59.024Z,31.17
2022-08-03T10:36:58.984Z,31.18
2022-08-03T10:37:59.131Z,31.14
2022-08-03T10:38:58.940Z,31.15
2022-08-03T10:39:58.927Z,31.18
2022-08-03T10:40:59.326Z,31.15
2022-08-03T10:42:02.459Z,31.20
2022-08-03T10:42:58.864Z,31.21
2022-08-03T10:43:58.883Z,31.15
2022-08-03T10:44:58.828Z,31.22
2022-08-03T10:45:58.799Z,31.15
2022-08-03T10:46:58.876Z,31.14
2022-08-03T10:47:58.760Z,31.17
2022-08-03T10:48:58.810Z,31.21
2022-08-03T10:49:58.746Z,31.21
2022-08-03T10:50:59.669Z,31.14
2022-08-03T10:51:58.679Z,31.12
2022-08-03T10:52:58.717Z,31.27
2022-08-03T10:53:58.750Z,31.21
2022-08-03T10:54:58.620Z,31.20
2022-08-03T10:55:58.685Z,31.28
2022-08-03T10:56:58.577Z,31.20
2022-08-03T10:57:59.175Z,31.14
2022-08-03T10:58:58.540Z,31.21
2022-08-03T10:59:58.537Z,31.15
2022-08-03T11:00:58.531Z,31.17
2022-08-03T11:02:00.766Z,31.14
2022-08-03T11:02:58.556Z,31.21
2022-08-03T11:03:58.443Z,31.15
2022-08-03T11:04:58.417Z,31.31
2022-08-03T11:05:58.405Z,31.34
2022-08-03T11:06:58.376Z,31.37
2022-08-03T11:07:58.381Z,31.40
2022-08-03T11:08:58.391Z,31.37
2022-08-03T11:09:58.340Z,31.42
2022-08-03T11:10:58.308Z,31.52
2022-08-03T11:11:58.278Z,31.58
2022-08-03T11:12:58.343Z,31.62
2022-08-03T11:13:58.388Z,31.66
2022-08-03T11:14:58.238Z,31.70
2022-08-03T11:16:00.518Z,31.71
2022-08-03T11:17:00.792Z,31.73
2022-08-03T11:17:58.153Z,31.70
2022-08-03T11:18:58.133Z,31.70
2022-08-03T11:19:58.604Z,31.70
2022-08-03T11:20:58.091Z,31.70
2022-08-03T11:21:58.077Z,31.85
2022-08-03T11:22:58.068Z,31.87
2022-08-03T11:24:02.971Z,31.73
2022-08-03T11:24:58.020Z,31.80
2022-08-03T11:25:58.051Z,31.70
2022-08-03T11:26:57.977Z,31.65
2022-08-03T11:27:57.967Z,31.65
2022-08-03T11:28:58.004Z,31.65
2022-08-03T11:29:57.915Z,31.66
2022-08-03T11:30:57.893Z,31.69
2022-08-03T11:31:57.877Z,31.78
2022-08-03T11:32:57.854Z,31.74
2022-08-03T11:33:57.934Z,31.70
2022-08-03T11:34:57.815Z,31.78
2022-08-03T11:35:57.795Z,31.76
2022-08-03T11:36:57.778Z,31.73
2022-08-03T11:38:02.437Z,31.81
2022-08-03T11:38:57.736Z,31.81
2022-08-03T11:39:57.796Z,31.80
2022-08-03T11:40:57.698Z,31.93
2022-08-03T11:41:57.675Z,31.99
2022-08-03T11:42:57.659Z,32.04
2022-08-03T11:43:57.636Z,32.09
2022-08-03T11:44:57.622Z,32.14
2022-08-03T11:45:57.653Z,32.19
2022-08-03T11:46:57.576Z,32.18
2022-08-03T11:47:57.557Z,32.21
2022-08-03T11:48:57.569Z,32.22
2022-08-03T11:49:57.715Z,32.21
2022-08-03T11:50:57.548Z,32.27
2022-08-03T11:51:57.489Z,32.29
2022-08-03T11:52:57.466Z,32.33
2022-08-03T11:53:57.441Z,32.43
2022-08-03T11:54:57.627Z,32.41
2022-08-03T11:55:57.631Z,32.48
2022-08-03T11:56:57.392Z,32.46
2022-08-03T11:59:12.973Z,32.45
2022-08-03T11:59:19.258Z,32.48
2022-08-03T11:59:57.322Z,32.43
2022-08-03T12:00:57.308Z,32.53
2022-08-03T12:01:57.393Z,32.48
2022-08-03T12:02:57.306Z,32.45
2022-08-03T12:03:57.248Z,32.43
2022-08-03T12:04:57.238Z,32.43
2022-08-03T12:05:57.239Z,32.49
2022-08-03T12:06:57.198Z,32.58
2022-08-03T12:08:04.149Z,32.63
2022-08-03T12:08:57.151Z,32.56
2022-08-03T12:09:57.133Z,32.58
2022-08-03T12:10:57.121Z,32.64
2022-08-03T12:12:00.396Z,32.58
2022-08-03T12:12:57.079Z,32.58
2022-08-03T12:14:50.075Z,32.77
2022-08-03T12:14:57.036Z,32.70
2022-08-03T12:15:57.020Z,32.78
2022-08-03T12:16:57.008Z,32.82
2022-08-03T12:17:58.026Z,32.78
2022-08-03T12:18:56.964Z,32.78
2022-08-03T12:19:57.047Z,32.80
2022-08-03T12:20:56.920Z,32.85
2022-08-03T12:21:57.630Z,32.92
2022-08-03T12:22:56.953Z,33.00
2022-08-03T12:23:57.812Z,33.07
2022-08-03T12:24:56.849Z,33.14
2022-08-03T12:25:57.036Z,33.14
2022-08-03T12:26:59.422Z,33.19
2022-08-03T12:27:56.792Z,33.30
2022-08-03T12:28:56.777Z,33.43
2022-08-03T12:29:58.571Z,33.47
2022-08-03T12:30:56.747Z,33.36
2022-08-03T12:31:56.761Z,33.28
2022-08-03T12:32:56.898Z,33.37
2022-08-03T12:33:56.677Z,33.36
2022-08-03T12:34:56.662Z,33.42
2022-08-03T12:35:56.644Z,33.40
2022-08-03T12:36:56.715Z,33.34
2022-08-03T12:37:56.608Z,33.49
2022-08-03T12:38:56.594Z,33.39
2022-08-03T12:40:02.272Z,33.34
2022-08-03T12:40:56.558Z,33.28
2022-08-03T12:41:56.606Z,33.31
2022-08-03T12:42:56.511Z,33.27
2022-08-03T12:43:56.498Z,33.23
2022-08-03T12:44:56.598Z,33.20
2022-08-03T12:45:56.459Z,33.30
2022-08-03T12:46:56.452Z,33.34
2022-08-03T12:47:56.515Z,33.31
2022-08-03T12:48:56.421Z,33.36
2022-08-03T12:49:56.382Z,33.45
2022-08-03T12:50:56.366Z,33.50
2022-08-03T12:51:56.351Z,33.52